createdAt,value
2023-02-16T00:00:54.503Z,26.20
2023-02-16T00:03:24.888Z,27.13
2023-02-16T00:05:54.453Z,25.57
2023-02-16T00:08:23.988Z,22.57
2023-02-16T00:11:11.877Z,25.50
2023-02-16T00:13:52.125Z,24.53
2023-02-16T00:16:24.335Z,26.03
2023-02-16T00:18:54.967Z,26.67
2023-02-16T00:21:24.544Z,25.73
2023-02-16T00:23:54.380Z,23.50
2023-02-16T00:26:26.655Z,26.10
2023-02-16T00:29:01.750Z,24.35
2023-02-16T00:31:32.439Z,24.43
2023-02-16T00:34:05.398Z,23.00
2023-02-16T00:36:34.909Z,21.30
2023-02-16T00:39:04.504Z,24.70
2023-02-16T00:41:53.669Z,21.40
2023-02-16T00:44:26.396Z,22.17
2023-02-16T00:46:56.333Z,23.33
2023-02-16T00:49:26.172Z,24.47
2023-02-16T00:51:56.781Z,23.98
2023-02-16T00:54:26.954Z,23.22
2023-02-16T00:56:56.828Z,23.33
2023-02-16T00:59:26.648Z,22.77
2023-02-16T01:01:57.554Z,21.83
2023-02-16T01:04:27.195Z,22.77
2023-02-16T01:07:15.453Z,23.43
2023-02-16T01:10:03.624Z,21.57
2023-02-16T01:12:33.419Z,20.30
2023-02-16T01:15:02.957Z,23.63
2023-02-16T01:17:32.457Z,22.77
2023-02-16T01:20:02.022Z,23.27
2023-02-16T01:22:33.520Z,22.83
2023-02-16T01:25:03.046Z,21.87
2023-02-16T01:27:33.881Z,21.73
2023-02-16T01:30:03.678Z,24.35
2023-02-16T01:32:33.378Z,20.80
2023-02-16T01:35:02.951Z,24.80
2023-02-16T01:37:32.534Z,22.80
2023-02-16T01:40:02.507Z,23.47
2023-02-16T01:42:37.825Z,26.63
2023-02-16T01:45:16.099Z,25.00
2023-02-16T01:47:52.466Z,23.50
2023-02-16T01:50:27.650Z,23.77
2023-02-16T01:53:03.576Z,22.00
2023-02-16T01:55:36.348Z,26.00
2023-02-16T01:58:44.711Z,23.85
2023-02-16T02:01:26.627Z,24.77
2023-02-16T02:04:14.523Z,25.37
2023-02-16T02:06:44.488Z,23.73
2023-02-16T02:09:23.283Z,24.80
2023-02-16T02:12:16.674Z,25.93
2023-02-16T02:14:48.306Z,25.57
2023-02-16T02:17:21.027Z,26.33
2023-02-16T02:20:17.800Z,24.57
2023-02-16T02:23:32.092Z,25.03
2023-02-16T02:26:13.658Z,24.33
2023-02-16T02:29:16.299Z,25.13
2023-02-16T02:32:05.521Z,25.57
2023-02-16T02:34:56.880Z,22.35
2023-02-16T02:37:47.238Z,24.87
2023-02-16T02:43:07.668Z,26.68
2023-02-16T02:45:46.074Z,22.53
2023-02-16T02:48:16.136Z,27.27
2023-02-16T02:51:18.710Z,26.03
2023-02-16T02:53:57.571Z,24.50
2023-02-16T02:56:45.074Z,25.03
2023-02-16T02:59:32.685Z,27.15
2023-02-16T03:02:03.586Z,26.07
2023-02-16T03:04:34.773Z,27.10
2023-02-16T03:07:05.835Z,26.85
2023-02-16T03:09:35.785Z,28.10
2023-02-16T03:12:27.244Z,26.10
2023-02-16T03:15:00.517Z,27.57
2023-02-16T03:17:56.564Z,26.10
2023-02-16T03:20:44.506Z,25.93
2023-02-16T03:23:31.973Z,26.50
2023-02-16T03:26:19.353Z,24.43
2023-02-16T03:29:08.211Z,25.80
2023-02-16T03:31:40.691Z,27.77
2023-02-16T03:34:10.872Z,26.43
2023-02-16T03:36:43.887Z,26.50
2023-02-16T03:39:14.424Z,27.57
2023-02-16T03:41:52.366Z,26.75
2023-02-16T03:44:23.031Z,26.60
2023-02-16T03:46:53.237Z,23.12
2023-02-16T03:49:22.712Z,25.40
2023-02-16T03:51:52.244Z,22.80
2023-02-16T03:54:22.102Z,25.20
2023-02-16T03:56:51.829Z,24.43
2023-02-16T03:59:21.498Z,26.43
2023-02-16T04:01:51.248Z,26.63
2023-02-16T04:04:21.081Z,23.83
2023-02-16T04:06:50.659Z,23.80
2023-02-16T04:09:20.626Z,28.47
2023-02-16T04:12:08.302Z,25.63
2023-02-16T04:14:37.919Z,25.03
2023-02-16T04:17:07.647Z,25.30
2023-02-16T04:19:37.161Z,27.10
2023-02-16T04:22:07.220Z,28.63
2023-02-16T04:24:36.712Z,25.67
2023-02-16T04:27:06.807Z,24.00
2023-02-16T04:29:36.305Z,28.40
2023-02-16T04:32:07.157Z,29.07
2023-02-16T04:34:36.680Z,25.40
2023-02-16T04:37:06.954Z,25.40
2023-02-16T04:39:36.513Z,27.03
2023-02-16T04:42:06.984Z,27.22
2023-02-16T04:44:36.469Z,28.03
2023-02-16T04:47:06.706Z,25.97
2023-02-16T04:49:36.217Z,25.77
2023-02-16T04:52:06.960Z,27.45
2023-02-16T04:54:36.529Z,28.63
2023-02-16T04:57:07.291Z,29.12
2023-02-16T04:59:36.848Z,29.27
2023-02-16T05:02:07.362Z,27.05
2023-02-16T05:04:37.087Z,26.97
2023-02-16T05:07:07.080Z,28.73
2023-02-16T05:09:36.580Z,26.43
2023-02-16T05:12:09.640Z,29.27
2023-02-16T05:14:48.256Z,26.53
2023-02-16T05:17:27.126Z,27.73
2023-02-16T05:19:59.624Z,27.20
2023-02-16T05:22:31.374Z,24.93
2023-02-16T05:25:04.299Z,25.27
2023-02-16T05:27:34.453Z,26.83
2023-02-16T05:30:04.566Z,26.47
2023-02-16T05:32:34.340Z,25.80
2023-02-16T05:35:03.826Z,25.00
2023-02-16T05:37:33.375Z,24.80
2023-02-16T05:40:02.875Z,25.83
2023-02-16T05:42:32.466Z,27.10
2023-02-16T05:45:02.432Z,26.17
2023-02-16T05:47:32.125Z,27.03
2023-02-16T05:50:01.719Z,27.00
2023-02-16T05:52:31.217Z,27.07
2023-02-16T05:55:00.777Z,26.03
2023-02-16T05:57:30.289Z,26.63
2023-02-16T05:59:59.809Z,25.13
2023-02-16T06:02:29.446Z,26.97
2023-02-16T06:04:58.997Z,28.87
2023-02-16T06:07:28.491Z,28.43
2023-02-16T06:09:58.028Z,27.17
2023-02-16T06:12:27.510Z,28.13
2023-02-16T06:14:57.129Z,27.43
2023-02-16T06:17:26.774Z,25.47
2023-02-16T06:19:56.382Z,26.27
2023-02-16T06:22:26.187Z,28.20
2023-02-16T06:24:55.706Z,26.97
2023-02-16T06:27:25.669Z,28.10
2023-02-16T06:29:55.537Z,28.03
2023-02-16T06:32:25.350Z,30.07
2023-02-16T06:34:54.943Z,24.00
2023-02-16T06:37:25.466Z,25.53
2023-02-16T06:39:55.430Z,26.82
2023-02-16T06:42:24.929Z,26.43
2023-02-16T06:44:54.457Z,26.27
2023-02-16T06:47:24.250Z,30.08
2023-02-16T06:49:53.973Z,30.83
2023-02-16T06:52:24.014Z,25.50
2023-02-16T06:54:53.701Z,28.10
2023-02-16T06:57:23.412Z,27.37
2023-02-16T06:59:53.001Z,25.57
2023-02-16T07:02:22.873Z,28.73
2023-02-16T07:04:53.168Z,28.70
2023-02-16T07:07:22.745Z,25.75
2023-02-16T07:09:52.725Z,26.83
2023-02-16T07:12:22.487Z,26.13
2023-02-16T07:14:52.030Z,27.07
2023-02-16T07:17:21.522Z,27.03
2023-02-16T07:19:52.999Z,26.93
2023-02-16T07:22:22.823Z,28.32
2023-02-16T07:24:52.519Z,28.70
2023-02-16T07:27:22.339Z,29.32
2023-02-16T07:29:52.088Z,25.87
2023-02-16T07:32:21.703Z,29.03
2023-02-16T07:34:51.552Z,30.47
2023-02-16T07:37:21.094Z,28.40
2023-02-16T07:39:50.875Z,28.07
2023-02-16T07:42:21.813Z,33.13
2023-02-16T07:44:53.330Z,31.13
2023-02-16T07:47:22.896Z,30.27
2023-02-16T07:49:52.752Z,29.30
2023-02-16T07:52:22.585Z,28.87
2023-02-16T07:54:52.388Z,30.27
2023-02-16T07:57:22.291Z,30.40
2023-02-16T07:59:55.970Z,26.60
2023-02-16T08:02:27.586Z,29.35
2023-02-16T08:04:58.091Z,27.80
2023-02-16T08:07:28.745Z,28.30
2023-02-16T08:09:59.052Z,21.03
2023-02-16T08:12:28.639Z,17.80
2023-02-16T08:14:58.559Z,19.27
2023-02-16T08:17:28.514Z,16.73
2023-02-16T08:19:58.385Z,16.67
2023-02-16T08:22:29.094Z,14.73
2023-02-16T08:25:02.556Z,15.70
2023-02-16T08:27:32.396Z,14.07
2023-02-16T08:30:02.322Z,15.20
2023-02-16T08:32:32.251Z,13.93
2023-02-16T08:35:02.393Z,13.47
2023-02-16T08:37:32.190Z,14.03
2023-02-16T08:40:02.891Z,13.03
2023-02-16T08:42:32.847Z,14.10
2023-02-16T08:45:02.594Z,12.20
2023-02-16T08:47:34.294Z,12.00
2023-02-16T08:50:04.264Z,12.40
2023-02-16T08:52:34.478Z,13.37
2023-02-16T08:55:04.641Z,13.67
2023-02-16T08:57:37.449Z,11.83
2023-02-16T09:00:26.121Z,11.63
2023-02-16T09:02:57.436Z,12.03
2023-02-16T09:05:29.529Z,12.03
2023-02-16T09:07:59.614Z,11.53
2023-02-16T09:10:30.208Z,12.20
2023-02-16T09:13:00.182Z,12.10
2023-02-16T09:15:30.160Z,10.43
2023-02-16T09:18:00.246Z,10.20
2023-02-16T09:20:30.144Z,11.23
2023-02-16T09:22:59.931Z,10.83
2023-02-16T09:25:30.136Z,11.45
2023-02-16T09:27:59.910Z,9.67
2023-02-16T09:30:29.966Z,10.77
2023-02-16T09:33:03.216Z,10.03
2023-02-16T09:35:33.507Z,10.13
2023-02-16T09:38:03.303Z,11.33
2023-02-16T09:40:33.140Z,10.50
2023-02-16T09:43:07.182Z,11.43
2023-02-16T09:45:46.204Z,10.03
2023-02-16T09:48:30.694Z,9.17
2023-02-16T09:51:03.011Z,10.50
2023-02-16T09:53:39.472Z,10.55
2023-02-16T09:56:22.569Z,10.03
2023-02-16T09:58:58.437Z,9.50
2023-02-16T10:01:40.358Z,9.70
2023-02-16T10:04:23.699Z,10.47
2023-02-16T10:07:17.578Z,9.88
2023-02-16T10:09:51.199Z,10.80
2023-02-16T10:12:24.022Z,9.53
2023-02-16T10:14:57.106Z,9.73
2023-02-16T10:17:35.871Z,9.87
2023-02-16T10:20:21.474Z,9.78
2023-02-16T10:22:54.297Z,11.53
2023-02-16T10:25:46.996Z,11.22
2023-02-16T10:28:21.866Z,10.40
2023-02-16T10:31:03.915Z,10.70
2023-02-16T10:33:43.243Z,10.50
2023-02-16T10:36:20.168Z,10.33
2023-02-16T10:38:55.530Z,11.17
2023-02-16T10:41:34.029Z,9.77
2023-02-16T10:44:28.213Z,10.67
2023-02-16T10:47:07.543Z,10.47
2023-02-16T10:49:37.845Z,10.53
2023-02-16T10:52:09.979Z,9.23
2023-02-16T10:54:40.182Z,9.60
2023-02-16T10:57:15.907Z,8.97
2023-02-16T10:59:47.323Z,11.37
2023-02-16T11:02:32.065Z,11.53
2023-02-16T11:05:03.918Z,9.93
2023-02-16T11:07:35.323Z,10.33
2023-02-16T11:10:09.243Z,11.22
2023-02-16T11:12:43.668Z,10.72
2023-02-16T11:15:19.723Z,11.27
2023-02-16T11:18:03.447Z,12.15
2023-02-16T11:20:36.761Z,10.70
2023-02-16T11:23:28.343Z,8.90
2023-02-16T11:26:02.338Z,10.20
2023-02-16T11:28:38.239Z,10.63
2023-02-16T11:31:20.042Z,11.13
2023-02-16T11:34:21.757Z,11.00
2023-02-16T11:36:51.744Z,11.10
2023-02-16T11:39:27.090Z,11.07
2023-02-16T11:41:59.678Z,10.33
2023-02-16T11:44:34.595Z,11.90
2023-02-16T11:47:10.548Z,11.53
2023-02-16T11:49:43.018Z,11.23
2023-02-16T11:52:27.669Z,10.70
2023-02-16T11:55:00.784Z,10.90
2023-02-16T11:57:34.470Z,9.83
2023-02-16T12:00:07.460Z,10.50
2023-02-16T12:03:09.324Z,12.07
2023-02-16T12:06:04.855Z,10.70
2023-02-16T12:08:56.025Z,10.83
2023-02-16T12:11:40.824Z,9.83
2023-02-16T12:14:29.145Z,10.53
2023-02-16T12:17:21.711Z,9.87
2023-02-16T12:19:54.523Z,8.73
2023-02-16T12:22:48.472Z,9.20
2023-02-16T12:25:42.329Z,9.83
2023-02-16T12:28:20.934Z,11.22
2023-02-16T12:31:16.807Z,10.13
2023-02-16T12:33:49.700Z,10.90
2023-02-16T12:36:37.357Z,10.73
2023-02-16T12:39:21.758Z,10.07
2023-02-16T12:42:10.879Z,10.03
2023-02-16T12:44:46.424Z,10.43
2023-02-16T12:47:19.567Z,10.80
2023-02-16T12:49:54.904Z,9.70
2023-02-16T12:52:30.531Z,11.73
2023-02-16T12:55:09.271Z,10.33
2023-02-16T12:57:42.140Z,11.87
2023-02-16T13:00:17.727Z,10.00
2023-02-16T13:02:53.378Z,11.10
2023-02-16T13:05:34.730Z,11.47
2023-02-16T13:08:25.637Z,12.10
2023-02-16T13:11:01.194Z,9.97
2023-02-16T13:13:34.231Z,11.63
2023-02-16T13:16:31.226Z,13.10
2023-02-16T13:19:01.852Z,10.50
2023-02-16T13:21:56.980Z,12.07
2023-02-16T13:24:32.799Z,10.67
2023-02-16T13:27:14.725Z,11.33
2023-02-16T13:30:06.130Z,11.00
2023-02-16T13:32:44.984Z,10.90
2023-02-16T13:35:32.731Z,10.70
2023-02-16T13:38:28.167Z,9.75
2023-02-16T13:41:01.038Z,12.17
2023-02-16T13:43:36.873Z,11.30
2023-02-16T13:46:15.799Z,10.97
2023-02-16T13:48:53.581Z,10.58
2023-02-16T13:51:27.398Z,11.03
2023-02-16T13:54:03.142Z,12.10
2023-02-16T13:56:38.592Z,11.50
2023-02-16T13:59:23.372Z,10.90
2023-02-16T14:01:55.015Z,11.90
2023-02-16T14:04:27.785Z,11.27
2023-02-16T14:07:11.018Z,11.13
2023-02-16T14:09:43.842Z,11.57
2023-02-16T14:12:19.068Z,11.47
2023-02-16T14:14:57.800Z,11.60
2023-02-16T14:17:35.816Z,11.63
2023-02-16T14:20:18.426Z,11.65
2023-02-16T14:22:54.518Z,12.15
2023-02-16T14:25:28.943Z,12.37
2023-02-16T14:28:06.921Z,10.70
2023-02-16T14:30:51.822Z,11.55
2023-02-16T14:33:24.741Z,12.87
2023-02-16T14:36:04.029Z,12.63
2023-02-16T14:38:42.937Z,11.23
2023-02-16T14:41:28.166Z,10.25
2023-02-16T14:44:03.685Z,13.63
2023-02-16T14:47:00.500Z,13.17
2023-02-16T14:49:39.256Z,11.37
2023-02-16T14:52:45.823Z,12.07
2023-02-16T14:55:36.460Z,11.70
2023-02-16T14:58:22.115Z,12.00
2023-02-16T15:01:04.097Z,10.93
2023-02-16T15:03:54.780Z,11.77
2023-02-16T15:06:27.382Z,12.73
2023-02-16T15:09:00.523Z,12.30
2023-02-16T15:11:38.026Z,12.05
2023-02-16T15:14:11.257Z,13.07
2023-02-16T15:16:42.171Z,12.30
2023-02-16T15:19:15.215Z,11.20
2023-02-16T15:21:45.088Z,11.70
2023-02-16T15:24:26.009Z,12.88
2023-02-16T15:26:59.351Z,11.93
2023-02-16T15:29:29.915Z,11.57
2023-02-16T15:32:01.080Z,11.73
2023-02-16T15:34:39.404Z,11.75
2023-02-16T15:37:24.382Z,11.97
2023-02-16T15:40:14.888Z,11.90
2023-02-16T15:42:29.537Z,11.10
2023-02-16T15:44:59.380Z,10.40
2023-02-16T15:47:29.843Z,11.60
2023-02-16T15:50:02.797Z,10.50
2023-02-16T15:52:38.453Z,12.93
2023-02-16T15:55:10.838Z,10.83
2023-02-16T15:57:42.557Z,11.15
2023-02-16T16:00:23.224Z,12.60
2023-02-16T16:02:55.879Z,12.93
2023-02-16T16:05:29.203Z,39.47
2023-02-16T16:08:00.031Z,18.60
2023-02-16T16:10:36.887Z,13.32
2023-02-16T16:13:09.829Z,12.33
2023-02-16T16:15:45.303Z,11.90
2023-02-16T16:18:38.998Z,10.78
2023-02-16T16:21:21.483Z,11.07
2023-02-16T16:23:56.633Z,12.43
2023-02-16T16:26:29.476Z,12.73
2023-02-16T16:28:59.765Z,12.70
2023-02-16T16:31:33.347Z,12.40
2023-02-16T16:34:07.131Z,13.40
2023-02-16T16:36:42.878Z,12.77
2023-02-16T16:39:21.411Z,13.75
2023-02-16T16:42:17.814Z,13.73
2023-02-16T16:45:07.369Z,11.70
2023-02-16T16:47:46.217Z,14.97
2023-02-16T16:50:18.795Z,14.03
2023-02-16T16:52:50.975Z,12.27
2023-02-16T16:55:24.853Z,13.72
2023-02-16T16:57:57.599Z,14.40
2023-02-16T17:00:30.971Z,13.57
2023-02-16T17:03:01.200Z,12.63
2023-02-16T17:05:31.499Z,12.82
2023-02-16T17:08:01.562Z,11.20
2023-02-16T17:10:31.448Z,14.23
2023-02-16T17:13:03.053Z,12.78
2023-02-16T17:15:44.837Z,13.25
2023-02-16T17:18:17.255Z,12.47
2023-02-16T17:20:47.684Z,12.50
2023-02-16T17:23:18.893Z,13.87
2023-02-16T17:25:49.358Z,13.43
2023-02-16T17:28:20.001Z,14.40
2023-02-16T17:30:49.862Z,13.08
2023-02-16T17:33:20.129Z,13.23
2023-02-16T17:35:50.325Z,15.08
2023-02-16T17:38:22.536Z,14.73
2023-02-16T17:40:54.964Z,15.80
2023-02-16T17:43:26.805Z,15.75
2023-02-16T17:45:59.967Z,14.80
2023-02-16T17:48:31.136Z,14.20
2023-02-16T17:53:29.965Z,15.45
2023-02-16T17:55:59.894Z,17.30
2023-02-16T17:58:30.032Z,16.05
2023-02-16T18:00:59.930Z,17.17
2023-02-16T18:03:29.874Z,18.13
2023-02-16T18:05:59.728Z,16.80
2023-02-16T18:08:29.627Z,18.07
2023-02-16T18:11:01.328Z,16.10
2023-02-16T18:13:32.275Z,17.07
2023-02-16T18:18:40.058Z,16.70
2023-02-16T18:21:09.866Z,18.40
2023-02-16T18:23:40.115Z,18.60
2023-02-16T18:26:10.064Z,19.07
2023-02-16T18:28:40.341Z,17.52
2023-02-16T18:31:10.364Z,21.43
2023-02-16T18:33:40.203Z,19.23
2023-02-16T18:36:10.621Z,17.63
2023-02-16T18:38:40.579Z,16.17
2023-02-16T18:41:10.681Z,20.43
2023-02-16T18:43:40.450Z,18.13
2023-02-16T18:46:11.144Z,17.43
2023-02-16T18:48:41.052Z,16.60
2023-02-16T18:51:11.904Z,17.43
2023-02-16T18:53:41.700Z,17.30
2023-02-16T18:56:13.213Z,17.12
2023-02-16T18:58:43.512Z,17.85
2023-02-16T19:01:15.596Z,17.70
2023-02-16T19:03:45.952Z,18.12
2023-02-16T19:06:15.469Z,16.47
2023-02-16T19:08:46.425Z,18.20
2023-02-16T19:11:16.376Z,17.30
2023-02-16T19:13:47.160Z,17.75
2023-02-16T19:16:18.001Z,16.60
2023-02-16T19:18:47.811Z,17.63
2023-02-16T19:21:17.298Z,18.40
2023-02-16T19:23:47.299Z,16.17
2023-02-16T19:26:18.862Z,16.70
2023-02-16T19:28:48.919Z,17.87
2023-02-16T19:31:21.284Z,17.80
2023-02-16T19:33:52.333Z,17.20
2023-02-16T19:36:22.637Z,17.82
2023-02-16T19:38:53.315Z,17.37
2023-02-16T19:41:26.184Z,17.07
2023-02-16T19:43:56.387Z,17.63
2023-02-16T19:46:27.146Z,19.77
2023-02-16T19:48:58.563Z,19.30
2023-02-16T19:51:28.941Z,23.53
2023-02-16T19:54:00.617Z,23.47
2023-02-16T19:56:30.494Z,22.77
2023-02-16T19:59:01.451Z,21.67
2023-02-16T20:04:01.011Z,19.92
2023-02-16T20:06:39.331Z,19.23
2023-02-16T20:09:12.196Z,17.03
2023-02-16T20:11:42.477Z,19.33
2023-02-16T20:14:13.270Z,18.27
2023-02-16T20:16:43.261Z,22.98
2023-02-16T20:19:13.224Z,23.60
2023-02-16T20:21:44.205Z,25.43
2023-02-16T20:24:14.884Z,22.97
2023-02-16T20:26:48.966Z,23.20
2023-02-16T20:29:18.519Z,23.67
2023-02-16T20:31:54.174Z,23.53
2023-02-16T20:34:25.783Z,20.93
2023-02-16T20:36:55.835Z,18.17
2023-02-16T20:39:25.749Z,15.20
2023-02-16T20:41:55.866Z,17.37
2023-02-16T20:44:26.583Z,14.83
2023-02-16T20:46:56.440Z,15.88
2023-02-16T20:49:26.289Z,14.63
2023-02-16T20:51:56.476Z,17.00
2023-02-16T20:54:26.318Z,16.47
2023-02-16T20:56:56.457Z,15.28
2023-02-16T20:59:26.434Z,14.23
2023-02-16T21:01:56.778Z,17.00
2023-02-16T21:04:26.579Z,18.23
2023-02-16T21:06:56.705Z,21.05
2023-02-16T21:09:26.498Z,18.83
2023-02-16T21:11:56.331Z,18.60
2023-02-16T21:14:26.178Z,19.83
2023-02-16T21:16:55.886Z,19.53
2023-02-16T21:19:25.718Z,17.10
2023-02-16T21:21:55.521Z,18.73
2023-02-16T21:24:25.042Z,16.50
2023-02-16T21:26:54.906Z,18.57
2023-02-16T21:29:24.506Z,17.83
2023-02-16T21:31:54.498Z,16.30
2023-02-16T21:34:24.267Z,16.13
2023-02-16T21:36:54.059Z,15.17
2023-02-16T21:39:26.176Z,15.43
2023-02-16T21:41:55.741Z,15.68
2023-02-16T21:44:25.565Z,15.38
2023-02-16T21:46:55.401Z,15.10
2023-02-16T21:49:25.164Z,18.07
2023-02-16T21:51:55.012Z,14.00
2023-02-16T21:54:26.304Z,19.63
2023-02-16T21:56:56.111Z,21.60
2023-02-16T21:59:25.926Z,19.43
2023-02-16T22:01:55.723Z,21.77
2023-02-16T22:04:25.629Z,18.97
2023-02-16T22:06:56.050Z,18.37
2023-02-16T22:09:26.221Z,17.67
2023-02-16T22:11:56.007Z,21.03
2023-02-16T22:14:25.861Z,20.50
2023-02-16T22:16:55.636Z,18.53
2023-02-16T22:19:25.468Z,21.20
2023-02-16T22:21:55.327Z,18.53
2023-02-16T22:24:25.386Z,20.60
2023-02-16T22:26:55.184Z,19.47
2023-02-16T22:29:24.711Z,19.77
2023-02-16T22:31:54.599Z,20.13
2023-02-16T22:34:24.112Z,19.20
2023-02-16T22:36:54.209Z,18.12
2023-02-16T22:39:24.030Z,15.90
2023-02-16T22:41:53.811Z,17.17
2023-02-16T22:44:23.357Z,16.70
2023-02-16T22:46:54.490Z,18.53
2023-02-16T22:49:24.315Z,18.92
2023-02-16T22:51:54.374Z,19.50
2023-02-16T22:54:24.736Z,17.67
2023-02-16T22:56:54.228Z,17.30
2023-02-16T22:59:23.769Z,16.10
2023-02-16T23:01:53.554Z,14.20
2023-02-16T23:04:23.131Z,14.43
2023-02-16T23:06:52.979Z,13.80
2023-02-16T23:09:23.729Z,12.63
2023-02-16T23:11:53.683Z,13.68
2023-02-16T23:14:23.829Z,12.10
2023-02-16T23:16:54.813Z,14.23
2023-02-16T23:19:27.113Z,14.98
2023-02-16T23:21:57.147Z,13.77
2023-02-16T23:24:27.418Z,13.38
2023-02-16T23:26:57.703Z,15.73
2023-02-16T23:29:27.756Z,15.10
2023-02-16T23:31:57.936Z,13.20
2023-02-16T23:34:27.723Z,13.73
2023-02-16T23:36:57.554Z,14.93
2023-02-16T23:39:27.338Z,13.63
2023-02-16T23:41:57.482Z,13.22
2023-02-16T23:44:27.270Z,12.60
2023-02-16T23:46:57.167Z,13.20
2023-02-16T23:49:30.943Z,12.23
2023-02-16T23:52:01.073Z,12.90
2023-02-16T23:54:30.950Z,11.53
2023-02-16T23:57:00.791Z,12.33
2023-02-16T23:59:30.887Z,13.00
